Time;durP1;ratioP1;P1;durP2;ratioP2;P2;SDS_P1;SDS_P2;PMS_P1;PMS_P2;Temp;Humidity;BMP_temperature;BMP_pressure;BME280_temperature;BME280_humidity;BME280_pressure;Samples;Min_cycle;Max_cycle;Signal;HPM_P1;HPM_P2
2022/10/28 00:00:14;;;;;;;;;12.33;8.33;;;;;20.12;61.07;101213.94;5119665;27;49113;-71
2022/10/28 00:02:39;;;;;;;;;9.33;8.00;;;;;20.14;61.19;101216.66;5129747;27;45162;-71
2022/10/28 00:05:05;;;;;;;;;9.33;7.33;;;;;20.11;60.94;101209.41;5116885;27;45504;-70
2022/10/28 00:07:30;;;;;;;;;11.00;7.33;;;;;20.03;61.03;101200.44;5124321;27;45394;-71
2022/10/28 00:09:56;;;;;;;;;11.67;9.67;;;;;20.08;61.33;101209.47;5116132;27;49089;-71
2022/10/28 00:12:21;;;;;;;;;15.67;10.33;;;;;20.09;61.39;101211.25;5122296;27;51388;-71
2022/10/28 00:14:46;;;;;;;;;11.67;8.00;;;;;20.12;61.10;101211.22;5129646;27;51348;-70
2022/10/28 00:17:12;;;;;;;;;7.67;6.33;;;;;20.10;61.11;101207.63;5131524;27;45166;-71
2022/10/28 00:19:37;;;;;;;;;11.33;7.33;;;;;20.11;61.10;101205.81;5123517;27;45286;-71
2022/10/28 00:22:02;;;;;;;;;10.33;6.00;;;;;20.10;61.10;101215.78;5128522;27;45052;-71
2022/10/28 00:24:27;;;;;;;;;8.67;7.67;;;;;20.09;61.25;101210.34;5114253;27;45418;-71
2022/10/28 00:26:53;;;;;;;;;10.33;7.00;;;;;19.94;61.47;101195.97;5106381;27;47309;-71
2022/10/28 00:29:18;;;;;;;;;7.00;7.00;;;;;19.54;61.48;101122.03;5114121;27;45330;-70
2022/10/28 00:31:45;;;;;;;;;9.33;7.00;;;;;20.05;61.85;101225.75;5116020;27;45059;-71
2022/10/28 00:34:14;;;;;;;;;10.33;8.67;;;;;19.92;61.46;101196.91;5123759;27;45673;-70
2022/10/28 00:36:41;;;;;;;;;6.00;6.00;;;;;20.03;61.23;101220.34;5127414;27;45182;-70
2022/10/28 00:39:26;;;;;;;;;8.00;7.00;;;;;20.05;61.39;101214.91;5127554;27;45231;-71
2022/10/28 00:41:57;;;;;;;;;11.33;6.67;;;;;20.04;61.50;101218.50;5116228;27;46020;-71
2022/10/28 00:44:46;;;;;;;;;8.00;8.00;;;;;20.02;61.56;101215.81;5115612;27;45161;-71
2022/10/28 00:47:15;;;;;;;;;6.00;6.00;;;;;20.00;61.42;101217.63;5116900;27;45607;-70
2022/10/28 00:49:42;;;;;;;;;8.00;6.67;;;;;19.92;61.71;101202.31;5110729;27;45179;-71
2022/10/28 00:52:11;;;;;;;;;6.67;6.00;;;;;19.92;61.59;101203.22;5115859;27;45274;-70
2022/10/28 00:54:38;;;;;;;;;5.67;5.67;;;;;19.83;61.84;101197.81;5116596;27;45683;-70
2022/10/28 00:57:12;;;;;;;;;6.67;5.33;;;;;19.84;61.86;101199.63;5102705;27;45039;-71
2022/10/28 00:59:42;;;;;;;;;7.33;5.67;;;;;19.92;61.90;101205.03;5122436;27;45034;-71
2022/10/28 01:02:08;;;;;;;;;10.00;8.67;;;;;19.77;61.89;101181.59;5122886;27;44984;-70
2022/10/28 01:04:33;;;;;;;;;11.00;7.67;;;;;19.51;61.96;101134.66;5119793;27;45339;-70
2022/10/28 01:07:01;;;;;;;;;10.33;7.33;;;;;19.79;62.16;101191.50;5114790;27;53391;-71
2022/10/28 01:09:26;;;;;;;;;8.67;7.67;;;;;19.73;61.93;101182.47;5124225;27;45186;-70
2022/10/28 01:12:19;;;;;;;;;9.00;7.00;;;;;19.81;62.25;101205.06;5121762;27;44939;-70
2022/10/28 01:15:15;;;;;;;;;9.33;6.00;;;;;19.79;62.19;101199.66;5133710;27;45792;-71
2022/10/28 01:18:03;;;;;;;;;8.00;3.33;;;;;19.78;62.13;101203.28;5120879;27;45163;-71
2022/10/28 01:20:53;;;;;;;;;9.00;6.00;;;;;19.79;62.08;101199.66;5109988;27;45245;-71
2022/10/28 01:23:32;;;;;;;;;7.00;7.00;;;;;19.79;61.88;101196.94;5115614;27;45175;-70
2022/10/28 01:26:06;;;;;;;;;5.00;4.33;;;;;19.78;62.24;101202.34;5110878;27;45744;-70
2022/10/28 01:28:54;;;;;;;;;7.33;6.67;;;;;19.77;62.18;101204.19;5117399;27;45070;-71
2022/10/28 01:31:31;;;;;;;;;10.00;6.33;;;;;19.76;61.63;101199.66;5115096;27;45175;-71
2022/10/28 01:34:17;;;;;;;;;9.67;6.67;;;;;19.74;62.25;101195.13;5112799;27;45156;-71
2022/10/28 01:37:01;;;;;;;;;8.67;6.00;;;;;19.77;62.11;101195.16;5121349;27;45664;-70
2022/10/28 01:39:54;;;;;;;;;9.33;7.33;;;;;19.69;62.48;101198.75;5128869;27;45272;-70
2022/10/28 01:42:33;;;;;;;;;10.67;8.00;;;;;19.70;62.19;101191.53;5122207;27;45365;-70
2022/10/28 01:45:10;;;;;;;;;6.67;4.33;;;;;19.66;62.34;101190.63;5116553;27;45286;-70
2022/10/28 01:48:00;;;;;;;;;5.67;5.33;;;;;19.67;62.30;101187.00;5128765;27;45120;-70
2022/10/28 01:50:39;;;;;;;;;7.00;7.00;;;;;19.36;62.30;101132.03;5123717;27;45227;-71
2022/10/28 01:53:12;;;;;;;;;6.00;6.00;;;;;19.60;62.39;101184.31;5114316;27;45075;-70
2022/10/28 01:55:41;;;;;;;;;6.33;5.33;;;;;19.52;62.41;101166.28;5117035;27;45266;-70
2022/10/28 01:58:11;;;;;;;;;7.33;5.33;;;;;19.56;62.69;101169.00;5120404;27;45619;-71
2022/10/28 02:00:37;;;;;;;;;5.00;5.00;;;;;19.58;62.37;101173.50;5101239;27;45465;-71
2022/10/28 02:03:05;;;;;;;;;5.00;5.00;;;;;19.62;62.53;101179.81;5126121;27;45037;-71
2022/10/28 02:05:43;;;;;;;;;9.00;5.00;;;;;19.27;62.37;101121.22;5126115;27;45212;-70
2022/10/28 02:08:34;;;;;;;;;10.00;6.00;;;;;19.61;62.44;101178.00;5124137;27;45345;-70
2022/10/28 02:10:59;;;;;;;;;10.00;7.33;;;;;19.59;62.65;101179.84;5120729;27;45233;-70
2022/10/28 02:13:37;;;;;;;;;6.67;5.67;;;;;19.59;62.51;101177.13;5126457;27;45015;-71
2022/10/28 02:16:10;;;;;;;;;7.00;4.33;;;;;19.59;62.47;101174.41;5130940;27;45151;-70
2022/10/28 02:19:00;;;;;;;;;7.33;5.33;;;;;19.57;62.74;101177.13;5116170;27;48521;-71
2022/10/28 02:21:41;;;;;;;;;8.00;6.00;;;;;19.56;62.45;101169.00;5121170;27;45582;-70
2022/10/28 02:24:06;;;;;;;;;7.67;5.33;;;;;19.56;62.68;101169.00;5122855;27;45151;-71
2022/10/28 02:26:38;;;;;;;;;5.00;5.00;;;;;19.49;62.45;101163.59;5126318;27;45096;-70
2022/10/28 02:29:16;;;;;;;;;6.00;6.00;;;;;19.50;62.90;101159.06;5113330;27;45726;-70
2022/10/28 02:31:50;;;;;;;;;9.67;7.00;;;;;19.50;62.39;101164.47;5112881;27;45149;-70
2022/10/28 02:34:26;;;;;;;;;6.67;6.00;;;;;19.52;62.39;101165.41;5128288;27;45081;-71
2022/10/28 02:36:54;;;;;;;;;8.33;7.00;;;;;19.35;62.29;101135.63;5118735;27;45786;-71
2022/10/28 02:39:25;;;;;;;;;5.00;4.33;;;;;19.50;62.34;101167.19;5125607;27;45290;-70
2022/10/28 02:41:57;;;;;;;;;5.67;5.00;;;;;19.47;62.34;101167.22;5121302;27;45213;-71
2022/10/28 02:44:28;;;;;;;;;8.33;7.00;;;;;19.33;62.54;101142.88;5112148;27;45005;-70
2022/10/28 02:46:58;;;;;;;;;8.00;4.00;;;;;19.41;62.36;101159.13;5125862;27;44949;-70
2022/10/28 02:49:26;;;;;;;;;5.33;5.33;;;;;19.43;62.59;101160.91;5131073;27;46303;-71
2022/10/28 02:51:57;;;;;;;;;6.00;5.00;;;;;19.10;62.63;101108.63;5118536;27;45076;-70
2022/10/28 02:54:29;;;;;;;;;11.67;5.33;;;;;19.40;62.42;101168.13;5131084;27;45007;-71
2022/10/28 02:57:00;;;;;;;;;5.33;4.33;;;;;19.36;62.57;101151.00;5116640;27;45272;-71
2022/10/28 02:59:27;;;;;;;;;6.33;5.33;;;;;19.27;62.50;101138.41;5088063;27;46595;-70
2022/10/28 03:01:52;;;;;;;;;5.67;5.00;;;;;19.36;62.48;101164.53;5119319;27;45038;-71
2022/10/28 03:04:18;;;;;;;;;5.00;5.00;;;;;19.26;62.52;101139.28;5128209;27;56677;-70
2022/10/28 03:06:43;;;;;;;;;5.67;4.67;;;;;19.22;62.54;101142.00;5122587;27;45416;-70
2022/10/28 03:09:08;;;;;;;;;8.00;7.67;;;;;19.25;62.65;101142.88;5119143;27;64555;-70
2022/10/28 03:11:33;;;;;;;;;6.33;4.67;;;;;19.38;62.45;101159.13;5121927;27;52009;-70
2022/10/28 03:13:59;;;;;;;;;5.00;5.00;;;;;19.33;62.28;101146.47;5118657;27;63532;-71
2022/10/28 03:16:25;;;;;;;;;4.67;3.00;;;;;19.32;62.60;101141.97;5114437;27;45127;-70
2022/10/28 03:18:51;;;;;;;;;10.00;6.00;;;;;19.27;62.61;101138.41;5113041;27;45675;-71
2022/10/28 03:21:16;;;;;;;;;9.33;4.67;;;;;19.25;62.63;101137.47;5107216;27;45262;-70
2022/10/28 03:23:41;;;;;;;;;6.00;5.00;;;;;19.24;62.75;101137.50;5111915;27;45322;-70
2022/10/28 03:26:07;;;;;;;;;11.33;8.00;;;;;19.26;62.84;101138.41;5120432;27;45338;-71
2022/10/28 03:28:32;;;;;;;;;10.00;5.67;;;;;19.17;62.79;101117.63;5122191;27;45239;-71
2022/10/28 03:30:57;;;;;;;;;5.00;3.33;;;;;19.21;62.64;101130.28;5120801;27;55470;-71
2022/10/28 03:33:23;;;;;;;;;11.33;5.33;;;;;19.23;62.67;101131.16;5119590;27;57821;-71
2022/10/28 03:35:48;;;;;;;;;5.67;5.67;;;;;19.22;62.51;101132.09;5125021;27;52058;-71
2022/10/28 03:38:13;;;;;;;;;8.00;5.00;;;;;19.23;62.42;101124.84;5114236;27;45837;-71
2022/10/28 03:40:38;;;;;;;;;5.00;4.33;;;;;19.22;62.73;101120.34;5116764;27;45239;-71
2022/10/28 03:43:04;;;;;;;;;9.67;4.33;;;;;19.22;62.63;101125.75;5110389;27;48158;-70
2022/10/28 03:45:29;;;;;;;;;5.67;5.00;;;;;19.23;62.58;101123.03;5112205;27;49344;-70
2022/10/28 03:47:54;;;;;;;;;4.00;4.00;;;;;19.15;62.78;101108.63;5119821;27;63848;-71
2022/10/28 03:50:20;;;;;;;;;6.00;6.00;;;;;19.20;62.49;101117.63;5131301;27;44990;-70
2022/10/28 03:52:45;;;;;;;;;8.33;7.00;;;;;19.22;62.58;101126.69;5116815;27;45464;-70
2022/10/28 03:55:10;;;;;;;;;9.00;6.00;;;;;19.20;62.64;101120.34;5119848;27;45235;-70
2022/10/28 03:57:35;;;;;;;;;7.00;6.00;;;;;19.14;62.47;101118.56;5121693;27;46274;-70
2022/10/28 04:00:02;;;;;;;;;11.67;6.00;;;;;19.14;62.73;101123.09;5111457;27;47519;-70
2022/10/28 04:02:28;;;;;;;;;6.33;4.33;;;;;18.94;62.71;101083.41;5103216;27;45007;-70
2022/10/28 04:04:53;;;;;;;;;9.33;7.67;;;;;19.12;62.84;101119.47;5128405;27;45160;-70
2022/10/28 04:07:18;;;;;;;;;9.00;5.00;;;;;19.11;62.60;101120.38;5116924;27;56896;-71
2022/10/28 04:09:44;;;;;;;;;9.00;5.33;;;;;19.07;62.64;101107.75;5103539;27;44947;-70
2022/10/28 04:12:09;;;;;;;;;5.33;5.33;;;;;19.05;62.89;101104.16;5124231;27;62319;-70
2022/10/28 04:14:35;;;;;;;;;5.33;5.33;;;;;19.04;62.79;101105.97;5125360;27;45479;-71
2022/10/28 04:17:00;;;;;;;;;8.33;6.67;;;;;19.07;62.80;101121.28;5121265;27;45860;-71
2022/10/28 04:19:25;;;;;;;;;9.67;7.67;;;;;19.03;62.89;101109.56;5102409;27;53333;-71
2022/10/28 04:21:51;;;;;;;;;10.00;8.33;;;;;18.95;62.64;101106.88;5122043;27;58038;-71
2022/10/28 04:24:16;;;;;;;;;5.33;4.67;;;;;19.05;62.55;101121.28;5117334;27;45235;-71
2022/10/28 04:26:41;;;;;;;;;8.00;6.00;;;;;19.13;62.35;101130.28;5129133;27;45391;-71
2022/10/28 04:29:06;;;;;;;;;5.67;5.00;;;;;19.13;62.46;101126.69;5116224;27;61541;-70
2022/10/28 04:31:32;;;;;;;;;5.67;4.67;;;;;19.11;62.34;101133.94;5097272;27;45315;-71
2022/10/28 04:33:57;;;;;;;;;6.67;5.00;;;;;19.06;62.45;101128.50;5117996;27;45042;-71
2022/10/28 04:36:22;;;;;;;;;6.00;5.00;;;;;19.11;62.28;101123.09;5112705;27;45841;-70
2022/10/28 04:38:50;;;;;;;;;7.00;5.00;;;;;19.13;62.43;101129.41;5126231;27;58191;-71
2022/10/28 04:41:16;;;;;;;;;7.67;7.67;;;;;19.02;62.52;101110.47;5119112;27;45259;-70
2022/10/28 04:43:42;;;;;;;;;8.33;5.67;;;;;19.10;62.31;101122.16;5119305;27;45166;-71
2022/10/28 04:46:07;;;;;;;;;15.67;7.00;;;;;19.11;62.40;101128.50;5120479;27;45615;-70
2022/10/28 04:48:33;;;;;;;;;6.67;6.00;;;;;19.09;62.22;101120.38;5131549;27;60418;-71
2022/10/28 04:50:58;;;;;;;;;3.33;2.00;;;;;19.09;62.33;101112.25;5123574;27;45098;-71
2022/10/28 04:53:23;;;;;;;;;4.33;4.00;;;;;19.13;62.32;101122.16;5109150;27;44980;-70
2022/10/28 04:55:49;;;;;;;;;6.67;6.67;;;;;19.10;62.04;101122.16;5118291;27;46333;-71
2022/10/28 04:58:14;;;;;;;;;8.67;5.00;;;;;19.11;62.20;101104.13;5119060;27;48072;-71
2022/10/28 05:00:39;;;;;;;;;9.33;6.67;;;;;19.13;62.15;101116.75;5122796;27;45652;-70
2022/10/28 05:03:05;;;;;;;;;8.67;6.00;;;;;19.10;62.16;101114.03;5115175;27;45612;-71
2022/10/28 05:05:31;;;;;;;;;10.67;6.00;;;;;19.11;61.88;101120.38;5116769;27;45319;-71
2022/10/28 05:07:57;;;;;;;;;8.00;6.00;;;;;19.01;62.17;101096.94;5121907;27;45078;-70
2022/10/28 05:10:22;;;;;;;;;9.67;8.33;;;;;19.08;62.02;101113.16;5117738;27;45239;-72
2022/10/28 05:12:48;;;;;;;;;8.67;6.00;;;;;19.06;62.06;101109.56;5112997;27;45194;-70
2022/10/28 05:15:14;;;;;;;;;9.00;6.33;;;;;19.08;62.01;101102.31;5122728;27;45434;-71
2022/10/28 05:17:42;;;;;;;;;6.33;5.67;;;;;19.09;61.96;101109.56;5121993;27;45023;-70
2022/10/28 05:20:08;;;;;;;;;5.33;5.33;;;;;19.04;61.74;101100.53;5124173;27;45439;-70
2022/10/28 05:22:34;;;;;;;;;7.00;6.33;;;;;19.07;61.71;101121.28;5115790;27;45006;-70
2022/10/28 05:24:59;;;;;;;;;12.00;8.00;;;;;19.07;61.84;101118.56;5113017;27;46151;-70
2022/10/28 05:27:24;;;;;;;;;11.67;9.00;;;;;19.06;61.86;101109.56;5110756;27;62842;-70
2022/10/28 05:29:50;;;;;;;;;9.00;6.67;;;;;19.06;61.47;101117.69;5111395;27;52896;-70
2022/10/28 05:32:15;;;;;;;;;13.67;11.00;;;;;18.92;61.69;101085.25;5117633;27;45335;-70
2022/10/28 05:34:40;;;;;;;;;17.00;9.67;;;;;19.04;61.66;101113.16;5121069;27;52697;-71
2022/10/28 05:37:05;;;;;;;;;8.67;6.67;;;;;19.00;61.76;101116.81;5118247;27;50642;-71
2022/10/28 05:39:31;;;;;;;;;11.67;8.67;;;;;18.95;61.87;101115.00;5124069;27;45410;-70
2022/10/28 05:41:56;;;;;;;;;8.00;8.00;;;;;18.99;61.95;101118.63;5113885;27;51575;-70
2022/10/28 05:44:21;;;;;;;;;7.67;6.00;;;;;18.94;61.93;101110.50;5116214;27;62479;-70
2022/10/28 05:46:47;;;;;;;;;7.00;7.00;;;;;18.95;61.82;101108.69;5106588;27;45749;-70
2022/10/28 05:49:12;;;;;;;;;10.33;5.67;;;;;18.93;61.96;101100.56;5108134;27;55055;-70
2022/10/28 05:51:37;;;;;;;;;9.33;6.00;;;;;18.92;61.92;101089.72;5123863;27;45071;-68
2022/10/28 05:54:03;;;;;;;;;10.00;5.33;;;;;18.88;61.58;101093.38;5091988;27;55207;-70
2022/10/28 05:56:28;;;;;;;;;11.00;8.33;;;;;18.99;61.60;101109.56;5118585;27;45520;-69
2022/10/28 05:58:53;;;;;;;;;7.33;6.33;;;;;19.00;61.63;101122.22;5121539;27;45045;-69
2022/10/28 06:01:19;;;;;;;;;10.00;9.33;;;;;19.00;61.62;101123.09;5118783;27;45155;-69
2022/10/28 06:03:44;;;;;;;;;9.33;9.33;;;;;18.98;61.92;101110.50;5117391;27;45593;-70
2022/10/28 06:06:09;;;;;;;;;11.67;10.00;;;;;18.88;61.67;101107.78;5111324;27;45120;-70
2022/10/28 06:08:35;;;;;;;;;11.00;9.67;;;;;18.95;61.86;101120.41;5119544;27;63237;-69
2022/10/28 06:11:00;;;;;;;;;9.33;5.00;;;;;18.95;61.54;101117.69;5112663;27;45035;-70
2022/10/28 06:13:26;;;;;;;;;11.00;11.00;;;;;18.99;61.67;101123.09;5103877;27;47632;-69
2022/10/28 06:15:56;;;;;;;;;9.00;8.67;;;;;19.00;61.63;101122.22;5116137;27;45029;-69
2022/10/28 06:18:22;;;;;;;;;15.00;10.33;;;;;18.99;61.67;101129.44;5113336;27;45321;-70
2022/10/28 06:20:55;;;;;;;;;12.33;8.67;;;;;18.98;61.74;101134.88;5106224;27;46939;-70
2022/10/28 06:23:22;;;;;;;;;8.00;8.00;;;;;18.99;61.51;101128.53;5115507;27;45739;-70
2022/10/28 06:25:47;;;;;;;;;10.67;9.00;;;;;19.00;61.78;101131.22;5115633;27;45281;-70
2022/10/28 06:28:12;;;;;;;;;9.67;9.00;;;;;18.93;61.54;101116.81;5111849;27;45346;-71
2022/10/28 06:30:38;;;;;;;;;13.00;10.33;;;;;18.99;61.48;101137.56;5106394;27;45418;-71
2022/10/28 06:33:03;;;;;;;;;29.00;27.50;;;;;18.99;61.57;101136.66;5119908;27;65486;-71
2022/10/28 06:35:28;;;;;;;;;17.67;11.00;;;;;19.00;61.49;101133.94;5115648;27;63969;-70
2022/10/28 06:37:55;;;;;;;;;13.00;9.33;;;;;19.02;61.30;101140.25;5112576;27;44982;-71
2022/10/28 06:40:21;;;;;;;;;13.00;10.33;;;;;18.90;61.17;101115.91;5111831;27;45445;-71
2022/10/28 06:42:46;;;;;;;;;14.33;11.33;;;;;18.95;61.52;101130.34;5117144;27;45231;-70
2022/10/28 06:45:11;;;;;;;;;17.33;10.67;;;;;18.94;61.28;101128.53;5108324;27;45256;-71
2022/10/28 06:47:37;;;;;;;;;11.67;10.33;;;;;18.96;61.16;101133.06;5114220;27;45377;-71
2022/10/28 06:50:02;;;;;;;;;12.00;7.00;;;;;19.08;60.67;101156.50;5115390;27;49885;-70
2022/10/28 06:52:28;;;;;;;;;10.00;8.67;;;;;19.08;60.68;101159.19;5107690;27;45327;-70
2022/10/28 06:54:53;;;;;;;;;11.33;11.33;;;;;19.07;60.69;101168.25;5114708;27;45279;-70
2022/10/28 06:57:18;;;;;;;;;11.33;9.33;;;;;19.07;60.63;101170.94;5118013;27;50373;-70
2022/10/28 06:59:44;;;;;;;;;5.33;4.67;;;;;19.10;60.24;101176.34;5124876;27;45053;-70
2022/10/28 07:02:10;;;;;;;;;11.00;8.33;;;;;19.12;60.51;101171.84;5120436;27;45235;-70
2022/10/28 07:04:36;;;;;;;;;10.33;6.67;;;;;19.13;60.12;101175.44;5108443;27;45246;-70
2022/10/28 07:07:02;;;;;;;;;11.33;6.67;;;;;19.12;59.90;101190.81;5118301;27;45221;-70
2022/10/28 07:09:27;;;;;;;;;8.00;7.00;;;;;19.14;60.12;101198.94;5116833;27;45469;-70
2022/10/28 07:11:52;;;;;;;;;11.00;7.67;;;;;19.15;60.06;101195.28;5112018;27;45613;-70
2022/10/28 07:14:18;;;;;;;;;12.67;9.67;;;;;19.14;59.64;101197.09;5100669;27;45155;-70
2022/10/28 07:16:43;;;;;;;;;11.67;8.33;;;;;19.12;59.63;101196.22;5119061;27;45267;-70
2022/10/28 07:19:08;;;;;;;;;10.00;8.00;;;;;19.02;59.38;101177.25;5120749;27;45409;-70
2022/10/28 07:21:34;;;;;;;;;9.67;8.33;;;;;19.15;59.28;101198.00;5113554;27;46175;-69
2022/10/28 07:24:00;;;;;;;;;12.33;9.33;;;;;19.17;59.54;101207.03;5116709;27;45090;-70
2022/10/28 07:26:26;;;;;;;;;13.33;9.00;;;;;19.09;59.60;101187.16;5125028;27;45118;-70
2022/10/28 07:28:52;;;;;;;;;12.00;8.33;;;;;19.13;59.42;101192.59;5126681;27;45150;-70
2022/10/28 07:31:17;;;;;;;;;12.00;7.33;;;;;19.26;59.41;101209.72;5127026;27;45562;-70
2022/10/28 07:33:42;;;;;;;;;11.33;10.00;;;;;19.33;59.43;101213.31;5127963;27;45011;-70
2022/10/28 07:36:08;;;;;;;;;15.33;15.33;;;;;19.27;59.18;101200.69;5130740;27;45055;-70
2022/10/28 07:38:33;;;;;;;;;15.33;11.33;;;;;19.41;59.18;101216.91;5133548;27;45187;-70
2022/10/28 07:41:04;;;;;;;;;12.00;9.00;;;;;19.44;59.21;101222.31;5135189;27;45557;-70
2022/10/28 07:43:29;;;;;;;;;17.67;9.33;;;;;19.43;59.44;101222.34;5117892;27;45000;-70
2022/10/28 07:45:56;;;;;;;;;15.67;9.33;;;;;19.51;59.00;101229.53;5125108;27;45134;-70
2022/10/28 07:48:21;;;;;;;;;30.50;26.25;;;;;19.58;58.71;101232.22;5130542;27;45244;-70
2022/10/28 07:50:46;;;;;;;;;13.00;10.33;;;;;19.47;58.91;101213.31;5133836;27;45103;-70
2022/10/28 07:53:12;;;;;;;;;13.00;9.67;;;;;19.65;58.45;101239.41;5132749;27;45129;-70
2022/10/28 07:55:37;;;;;;;;;10.33;8.67;;;;;19.72;58.41;101243.94;5135057;27;45277;-70
2022/10/28 07:58:02;;;;;;;;;24.00;12.67;;;;;19.69;58.32;101219.53;5120148;27;45081;-70
2022/10/28 08:00:28;;;;;;;;;15.00;13.00;;;;;19.81;58.11;101226.75;5122765;27;66813;-70
2022/10/28 08:02:53;;;;;;;;;9.67;8.33;;;;;19.77;57.45;101222.28;5127677;27;49053;-70
2022/10/28 08:05:18;;;;;;;;;12.33;10.33;;;;;19.87;57.37;101226.75;5123912;27;56946;-71
2022/10/28 08:07:45;;;;;;;;;12.67;9.00;;;;;19.98;56.57;101242.94;5128175;27;50041;-71
2022/10/28 08:10:11;;;;;;;;;10.67;10.33;;;;;19.87;56.55;101232.16;5120599;27;45945;-71
2022/10/28 08:12:36;;;;;;;;;8.00;7.00;;;;;19.55;55.93;101180.72;5130147;27;45150;-70
2022/10/28 08:15:02;;;;;;;;;8.00;7.67;;;;;20.02;55.98;101261.03;5128984;27;45016;-69
2022/10/28 08:17:27;;;;;;;;;11.00;7.67;;;;;20.05;56.01;101261.91;5130265;27;45274;-71
2022/10/28 08:19:52;;;;;;;;;13.67;10.33;;;;;19.96;55.69;101250.19;5131561;27;47717;-70
2022/10/28 08:22:18;;;;;;;;;9.33;9.33;;;;;20.07;55.61;101265.50;5127502;27;46435;-71
2022/10/28 08:24:43;;;;;;;;;8.00;8.00;;;;;20.11;55.78;101270.91;5124907;27;45336;-71
2022/10/28 08:27:08;;;;;;;;;12.00;10.00;;;;;20.05;55.58;101264.63;5125155;27;44972;-71
2022/10/28 08:29:34;;;;;;;;;7.00;7.00;;;;;20.13;55.60;101274.53;5124731;27;45560;-71
2022/10/28 08:31:59;;;;;;;;;10.00;9.00;;;;;20.10;55.30;101277.28;5127044;27;45135;-71
2022/10/28 08:34:28;;;;;;;;;10.33;10.00;;;;;20.10;55.11;101270.03;5125434;27;45537;-70
2022/10/28 08:36:54;;;;;;;;;11.33;8.00;;;;;20.18;55.60;101276.31;5128734;27;44981;-71
2022/10/28 08:39:19;;;;;;;;;11.33;9.67;;;;;20.22;55.11;101279.91;5128905;27;45244;-70
2022/10/28 08:42:12;;;;;;;;;15.33;11.33;;;;;20.26;55.38;101281.72;5132338;27;47321;-70
2022/10/28 08:45:00;;;;;;;;;12.67;12.33;;;;;20.27;55.20;101285.31;5113557;27;45112;-70
2022/10/28 08:47:37;;;;;;;;;16.33;10.00;;;;;20.28;55.08;101301.59;5122508;27;45280;-70
2022/10/28 08:50:11;;;;;;;;;13.00;8.67;;;;;20.17;55.00;101281.75;5110275;27;46487;-69
2022/10/28 08:52:59;;;;;;;;;11.33;8.67;;;;;20.31;55.09;101308.81;5132681;27;45967;-70
2022/10/28 08:55:30;;;;;;;;;10.00;6.00;;;;;20.33;54.66;101307.91;5133971;27;44968;-70
2022/10/28 08:58:32;;;;;;;;;9.00;8.00;;;;;20.29;55.03;101300.66;5133385;27;45090;-70
2022/10/28 09:01:00;;;;;;;;;16.00;12.00;;;;;20.28;54.93;101301.59;5126460;27;45270;-70
2022/10/28 09:03:32;;;;;;;;;16.67;10.33;;;;;20.40;55.15;101320.53;5105975;27;45341;-71
2022/10/28 09:06:06;;;;;;;;;14.67;13.00;;;;;20.43;54.95;101335.91;5109912;27;44985;-71
2022/10/28 09:08:38;;;;;;;;;13.00;9.33;;;;;20.43;54.86;101344.03;5126668;27;45055;-69
2022/10/28 09:11:28;;;;;;;;;16.00;10.33;;;;;20.49;54.96;101345.81;5114079;27;45249;-71
2022/10/28 09:14:23;;;;;;;;;12.33;9.00;;;;;20.54;54.25;101343.97;5128359;27;45031;-71
2022/10/28 09:17:02;;;;;;;;;10.00;9.33;;;;;20.58;54.36;101337.63;5130036;27;45039;-70
2022/10/28 09:19:41;;;;;;;;;12.33;9.00;;;;;20.59;54.35;101325.84;5118313;27;45180;-70
2022/10/28 09:22:26;;;;;;;;;12.67;10.00;;;;;20.64;53.94;101331.28;5133528;27;45236;-71
2022/10/28 09:25:05;;;;;;;;;11.33;7.67;;;;;20.69;53.82;101316.78;5127734;27;44975;-69
2022/10/28 09:27:54;;;;;;;;;11.33;6.33;;;;;20.74;53.96;101323.09;5122006;27;44989;-71
2022/10/28 09:30:47;;;;;;;;;12.33;10.00;;;;;20.83;53.21;101332.97;5115693;27;45098;-71
2022/10/28 09:33:46;;;;;;;;;8.00;7.33;;;;;20.89;53.25;101345.63;5113702;27;45019;-71
2022/10/28 09:36:22;;;;;;;;;7.00;6.33;;;;;20.94;53.46;101347.38;5128375;27;45173;-71
2022/10/28 09:38:53;;;;;;;;;8.67;5.67;;;;;20.98;52.97;101362.75;5130643;27;45064;-71
2022/10/28 09:41:24;;;;;;;;;12.67;7.33;;;;;21.04;52.99;101364.53;5131801;27;45013;-71
2022/10/28 09:43:56;;;;;;;;;8.00;7.33;;;;;21.08;52.96;101366.28;5117523;27;45603;-70
2022/10/28 09:46:27;;;;;;;;;11.33;9.00;;;;;21.15;52.79;101373.50;5122130;27;44917;-70
2022/10/28 09:48:57;;;;;;;;;13.00;10.33;;;;;21.12;53.27;101365.38;5113192;27;45112;-70
2022/10/28 09:51:32;;;;;;;;;11.67;11.33;;;;;21.21;52.85;101372.56;5119946;27;45103;-70
2022/10/28 09:53:59;;;;;;;;;14.33;5.33;;;;;21.23;52.93;101351.69;5129320;27;45426;-70
2022/10/28 09:56:26;;;;;;;;;9.00;7.00;;;;;21.37;52.92;101362.47;5116634;27;45290;-69
2022/10/28 09:58:54;;;;;;;;;9.33;7.00;;;;;21.31;52.77;101329.91;5112879;27;45571;-70
2022/10/28 10:01:20;;;;;;;;;14.67;9.33;;;;;21.46;52.93;101361.47;5124909;27;45173;-70
2022/10/28 10:03:50;;;;;;;;;11.00;10.33;;;;;21.51;52.68;101351.50;5117637;27;45457;-70
2022/10/28 10:06:27;;;;;;;;;11.33;9.33;;;;;21.57;52.41;101364.16;5125886;27;45016;-70
2022/10/28 10:08:55;;;;;;;;;12.67;7.33;;;;;21.59;52.60;101365.03;5110062;27;45230;-71
2022/10/28 10:11:42;;;;;;;;;12.00;9.67;;;;;21.59;52.44;101371.34;5128992;27;44988;-70
2022/10/28 10:14:17;;;;;;;;;10.00;8.67;;;;;21.32;52.37;101327.16;5097299;27;47349;-70
2022/10/28 10:16:54;;;;;;;;;15.00;11.33;;;;;21.64;52.48;101384.91;5129422;27;44969;-71
2022/10/28 10:19:20;;;;;;;;;13.00;9.00;;;;;21.62;52.43;101387.66;5113443;27;45010;-70
2022/10/28 10:21:48;;;;;;;;;9.00;8.00;;;;;21.63;52.39;101386.75;5130927;27;44954;-70
2022/10/28 10:24:32;;;;;;;;;20.67;13.00;;;;;21.47;52.46;101358.78;5103532;27;46124;-71
2022/10/28 10:27:20;;;;;;;;;11.00;9.00;;;;;21.58;52.77;101391.31;5103828;27;45932;-71
2022/10/28 10:29:48;;;;;;;;;13.33;13.33;;;;;21.42;52.84;101376.91;5112082;27;45207;-71
2022/10/28 10:32:30;;;;;;;;;15.33;12.00;;;;;21.49;53.12;101389.56;5123127;27;45273;-71
2022/10/28 10:35:05;;;;;;;;;15.00;15.00;;;;;21.50;53.42;101391.38;5112743;27;45420;-71
2022/10/28 10:37:34;;;;;;;;;13.33;12.00;;;;;21.54;53.37;101379.53;5118006;27;45116;-70
2022/10/28 10:40:22;;;;;;;;;17.67;10.00;;;;;21.61;53.23;101377.66;5127526;27;45179;-71
2022/10/28 10:42:48;;;;;;;;;13.00;10.33;;;;;21.60;53.06;101366.84;5099868;27;45182;-70
2022/10/28 10:45:13;;;;;;;;;12.00;8.67;;;;;21.76;53.13;101397.50;5111982;27;45015;-70
2022/10/28 10:47:39;;;;;;;;;21.00;14.67;;;;;21.81;52.89;101398.34;5126512;27;45212;-70
2022/10/28 10:50:28;;;;;;;;;6.33;6.33;;;;;21.88;52.86;101402.81;5125303;27;45157;-71
2022/10/28 10:52:57;;;;;;;;;12.33;10.67;;;;;21.89;52.47;101399.16;5129920;27;45164;-70
2022/10/28 10:55:35;;;;;;;;;13.67;10.00;;;;;21.95;52.56;101418.16;5130355;27;45100;-70
2022/10/28 10:58:02;;;;;;;;;17.00;11.33;;;;;21.93;52.37;101413.63;5130947;27;45143;-70
2022/10/28 11:00:37;;;;;;;;;11.00;8.33;;;;;22.03;52.51;101420.81;5123785;27;45070;-70
2022/10/28 11:03:18;;;;;;;;;18.67;12.67;;;;;22.04;52.48;101407.19;5105631;27;45492;-70
2022/10/28 11:05:49;;;;;;;;;14.33;13.00;;;;;22.15;52.40;101417.94;5123342;27;45566;-70
2022/10/28 11:08:42;;;;;;;;;12.00;10.67;;;;;22.23;52.39;101432.38;5126153;27;45227;-70
2022/10/28 11:11:17;;;;;;;;;14.67;12.67;;;;;22.23;52.31;101415.16;5112746;27;45224;-70
2022/10/28 11:13:44;;;;;;;;;9.33;9.33;;;;;22.25;52.33;101411.47;5125280;27;45035;-70
2022/10/28 11:16:22;;;;;;;;;15.67;10.00;;;;;22.36;52.34;101429.56;5129118;27;45225;-70
2022/10/28 11:18:50;;;;;;;;;9.33;9.33;;;;;22.37;52.13;101428.63;5128262;27;45070;-70
2022/10/28 11:21:34;;;;;;;;;11.33;10.33;;;;;22.42;52.25;101432.19;5130199;27;45119;-70
2022/10/28 11:24:17;;;;;;;;;14.00;11.33;;;;;22.44;52.13;101441.25;5127437;27;45371;-70
2022/10/28 11:27:03;;;;;;;;;11.00;9.33;;;;;22.33;52.18;101435.03;5105791;27;46154;-71
2022/10/28 11:29:28;;;;;;;;;14.33;11.00;;;;;22.38;52.64;101444.94;5109849;27;45276;-70
2022/10/28 11:32:16;;;;;;;;;14.33;10.33;;;;;22.40;52.57;101447.66;5125937;27;45214;-70